地図

経路データ

SID SEASON NUMBER BASIN SUBBASIN NAME ISO_TIME NATURE LAT LON WMO_WIND WMO_PRES WMO_AGENCY TRACK_TYPE DIST2LAND LANDFALL IFLAG USA_AGENCY USA_ATCF_ID USA_LAT USA_LON USA_RECORD USA_STATUS USA_WIND USA_PRES USA_SSHS USA_R34_NE USA_R34_SE USA_R34_SW USA_R34_NW USA_R50_NE USA_R50_SE USA_R50_SW USA_R50_NW USA_R64_NE USA_R64_SE USA_R64_SW USA_R64_NW USA_POCI USA_ROCI USA_RMW USA_EYE TOKYO_LAT TOKYO_LON TOKYO_GRADE TOKYO_WIND TOKYO_PRES TOKYO_R50_DIR TOKYO_R50_LONG TOKYO_R50_SHORT TOKYO_R30_DIR TOKYO_R30_LONG TOKYO_R30_SHORT TOKYO_LAND CMA_LAT CMA_LON CMA_CAT CMA_WIND CMA_PRES HKO_LAT HKO_LON HKO_CAT HKO_WIND HKO_PRES NEWDELHI_LAT NEWDELHI_LON NEWDELHI_GRADE NEWDELHI_WIND NEWDELHI_PRES NEWDELHI_CI NEWDELHI_DP NEWDELHI_POCI REUNION_LAT REUNION_LON REUNION_TYPE REUNION_WIND REUNION_PRES REUNION_TNUM REUNION_CI REUNION_RMW REUNION_R34_NE REUNION_R34_SE REUNION_R34_SW REUNION_R34_NW REUNION_R50_NE REUNION_R50_SE REUNION_R50_SW REUNION_R50_NW REUNION_R64_NE REUNION_R64_SE REUNION_R64_SW REUNION_R64_NW BOM_LAT BOM_LON BOM_TYPE BOM_WIND BOM_PRES BOM_TNUM BOM_CI BOM_RMW BOM_R34_NE BOM_R34_SE BOM_R34_SW BOM_R34_NW BOM_R50_NE BOM_R50_SE BOM_R50_SW BOM_R50_NW BOM_R64_NE BOM_R64_SE BOM_R64_SW BOM_R64_NW BOM_ROCI BOM_POCI BOM_EYE BOM_POS_METHOD BOM_PRES_METHOD NADI_LAT NADI_LON NADI_CAT NADI_WIND NADI_PRES WELLINGTON_LAT WELLINGTON_LON WELLINGTON_WIND WELLINGTON_PRES DS824_LAT DS824_LON DS824_STAGE DS824_WIND DS824_PRES TD9636_LAT TD9636_LON TD9636_STAGE TD9636_WIND TD9636_PRES TD9635_LAT TD9635_LON TD9635_WIND TD9635_PRES TD9635_ROCI NEUMANN_LAT NEUMANN_LON NEUMANN_CLASS NEUMANN_WIND NEUMANN_PRES MLC_LAT MLC_LON MLC_CLASS MLC_WIND MLC_PRES USA_GUST BOM_GUST BOM_GUST_PER REUNION_GUST REUNION_GUST_PER USA_SEAHGT USA_SEARAD_NE USA_SEARAD_SE USA_SEARAD_SW USA_SEARAD_NW STORM_SPEED STORM_DIR
1990272N11121 1990 96 WP MM IRA 1990-09-29 06:00:00 NR 10.9000 120.500 main 98 77 O_____________ jtwc_wp WP231990 10.9000 120.500 10 -1 5 282
1990272N11121 1990 96 WP MM IRA 1990-09-29 09:00:00 NR 10.9500 120.258 main 76 43 P_____________ WP231990 10.9500 120.258 10 -1 5 282
1990272N11121 1990 96 WP MM IRA 1990-09-29 12:00:00 NR 11.0000 120.000 main 43 10 O_____________ jtwc_wp WP231990 11.0000 120.000 10 -1 5 281
1990272N11121 1990 96 WP MM IRA 1990-09-29 15:00:00 NR 11.0500 119.715 main 10 0 P_____________ WP231990 11.0500 119.715 12 -1 6 280
1990272N11121 1990 96 WP MM IRA 1990-09-29 18:00:00 NR 11.1000 119.400 main 0 0 O_____________ jtwc_wp WP231990 11.1000 119.400 15 -1 7 278
1990272N11121 1990 96 WP MM IRA 1990-09-29 21:00:00 NR 11.1425 119.057 main 31 31 P_____________ WP231990 11.1425 119.057 15 -1 7 278
1990272N11121 1990 96 WP MM IRA 1990-09-30 00:00:00 NR 11.2000 118.700 main 73 73 O_____________ jtwc_wp WP231990 11.2000 118.700 15 -1 7 281
1990272N11121 1990 96 WP MM IRA 1990-09-30 03:00:00 NR 11.2775 118.335 main 118 118 P_____________ WP231990 11.2775 118.335 17 -1 7 286
1990272N11121 1990 96 WP MM IRA 1990-09-30 06:00:00 NR 11.4000 118.000 main 152 152 O_____________ jtwc_wp WP231990 11.4000 118.000 20 -1 7 299
1990272N11121 1990 96 WP MM IRA 1990-09-30 09:00:00 NR 11.5924 117.750 main 190 190 P_____________ WP231990 11.5924 117.750 20 -1 6 309
1990272N11121 1990 96 WP MM IRA 1990-09-30 12:00:00 NR 11.8000 117.500 main 217 217 O_____________ jtwc_wp WP231990 11.8000 117.500 20 -1 7 303
1990272N11121 1990 96 WP MM IRA 1990-09-30 15:00:00 NR 11.9575 117.165 main 255 255 P_____________ WP231990 11.9575 117.165 20 -1 7 294
1990272N11121 1990 96 WP MM IRA 1990-09-30 18:00:00 NR 12.1000 116.800 main 300 300 O_____________ jtwc_wp WP231990 12.1000 116.800 20 -1 8 292
1990272N11121 1990 96 WP MM IRA 1990-09-30 21:00:00 NR 12.2425 116.442 main 345 345 P_____________ WP231990 12.2425 116.442 22 -1 7 294
1990272N11121 1990 96 WP MM IRA 1990-10-01 00:00:00 NR 12.4000 116.100 main 383 383 O_____________ jtwc_wp WP231990 12.4000 116.100 25 -1 7 300
1990272N11121 1990 96 WP MM IRA 1990-10-01 03:00:00 NR 12.5999 115.800 main 422 422 P_____________ WP231990 12.5999 115.800 25 -1 7 304
1990272N11121 1990 96 WP MM IRA 1990-10-01 06:00:00 NR 12.8000 115.500 main 460 460 O_____________ jtwc_wp WP231990 12.8000 115.500 25 -1 7 300
1990272N11121 1990 96 WP MM IRA 1990-10-01 09:00:00 NR 12.9650 115.150 main 499 509 P_____________ WP231990 12.9650 115.150 25 -1 7 294
1990272N11121 1990 96 WP MM IRA 1990-10-01 12:00:00 NR 13.1000 114.800 main 543 542 O_____________ jtwc_wp WP231990 13.1000 114.800 25 -1 7 292
1990272N11121 1990 96 WP MM IRA 1990-10-01 15:00:00 NR 13.2149 114.500 main 542 520 P_____________ WP231990 13.2149 114.500 25 -1 5 270
1990272N11121 1990 96 WP MM IRA 1990-10-01 18:00:00 TS 13.1000 114.320 1002 tokyo main 520 488 OO____________ jtwc_wp WP231990 13.3000 114.200 25 -1 12.3000 114.800 2 1002 0 0 0 5 251
1990272N11121 1990 96 WP MM IRA 1990-10-01 21:00:00 TS 13.0418 113.976 main 488 445 PP____________ WP231990 13.3575 113.857 27 -1 12.4104 114.213 2 1002 0 0 7 274
1990272N11121 1990 96 WP MM IRA 1990-10-02 00:00:00 TS 13.1556 113.556 1002 tokyo main 445 403 OOOO__________ jtwc_wp WP231990 13.4000 113.500 30 -1 12.6000 113.700 2 1002 0 0 0 13.6000 113.300 1 29 998 13.4000 113.600 TD 25 1000 8 287
1990272N11121 1990 96 WP MM IRA 1990-10-02 03:00:00 TS 13.2774 113.198 main 403 372 PPPP__________ WP231990 13.4575 113.150 30 -1 12.9072 113.300 2 1001 0 0 13.6275 113.065 1 29 998 13.3076 113.220 TD 27 1000 7 287
1990272N11121 1990 96 WP MM IRA 1990-10-02 06:00:00 TS 13.3714 112.829 1000 tokyo main 361 319 OOOO__________ jtwc_wp WP231990 13.5000 112.800 30 -1 13.2000 112.900 2 1000 0 0 0 13.6000 112.800 1 29 998 13.2000 112.800 TD 30 1000 8 276
1990272N11121 1990 96 WP MM IRA 1990-10-02 09:00:00 TS 13.3537 112.412 main 319 274 PPPP__________ WP231990 13.5074 112.465 32 -1 13.3374 112.387 2 998 0 0 13.4924 112.480 1 33 996 13.0775 112.315 TD 30 1000 9 267
1990272N11121 1990 96 WP MM IRA 1990-10-02 12:00:00 TS 13.3250 111.950 35 996 tokyo main 274 221 OOOO__________ jtwc_wp WP231990 13.5000 112.100 35 0 13.4000 111.800 3 35 996 0 9 60 60 0 13.4000 112.100 2 38 995 13.0000 111.800 TD 30 1000 9 270
1990272N11121 1990 96 WP MM IRA 1990-10-02 15:00:00 TS 13.3473 111.466 main 221 171 PPPP__________ WP231990 13.4924 111.687 35 0 13.4573 111.180 3 35 996 0 9 60 60 13.4198 111.702 2 38 995 13.0199 111.293 TD 30 1000 10 274
1990272N11121 1990 96 WP MM IRA 1990-10-02 18:00:00 TS 13.4000 110.925 35 996 tokyo main 161 118 OOOO__________ jtwc_wp WP231990 13.5000 111.200 35 0 13.5000 110.500 3 35 996 0 9 60 60 0 13.5000 111.200 2 38 995 13.1000 110.800 TD 30 1000 11 276
1990272N11121 1990 96 WP MM IRA 1990-10-02 21:00:00 TS 13.4656 110.322 main 108 43 PPPP__________ WP231990 13.5424 110.638 35 0 13.5424 109.765 3 35 996 0 9 55 55 13.6001 110.538 2 38 995 13.1773 110.350 TD 32 997 12 277
1990272N11121 1990 96 WP MM IRA 1990-10-03 00:00:00 TS 13.5500 109.675 35 996 tokyo main 44 0 OOOO__________ jtwc_wp WP231990 13.6000 110.000 35 0 13.6000 109.000 3 35 996 0 9 50 50 0 13.7000 109.800 2 38 995 13.3000 109.900 TS 35 995 13 278
1990272N11121 1990 96 WP MM IRA 1990-10-03 03:00:00 TS 13.6442 109.027 main 0 0 PPPP__________ WP231990 13.6423 109.330 32 -1 13.6924 108.235 3 35 997 0 9 50 50 13.7497 109.115 2 33 996 13.4923 109.430 TS 35 995 13 279
1990272N11121 1990 96 WP MM IRA 1990-10-03 06:00:00 TS 13.7533 108.313 35 998 tokyo main 0 0 OOOO__________ jtwc_wp WP231990 13.7000 108.600 30 -1 13.8000 107.500 3 35 998 0 9 50 50 0 13.8000 108.400 1 29 998 13.7000 108.900 TS 35 995 15 278
1990272N11121 1990 96 WP MM IRA 1990-10-03 09:00:00 TS 13.8492 107.544 main 0 0 PPPP__________ WP231990 13.7925 107.808 30 -1 13.8773 106.827 3 999 0 9 13.8697 107.630 1 29 998 13.8655 108.278 TS 32 997 15 278
1990272N11121 1990 96 WP MM IRA 1990-10-03 12:00:00 TS 13.9636 106.782 1000 tokyo main 0 0 OOOO__________ jtwc_wp WP231990 13.9000 107.000 30 -1 14.0000 106.200 2 1000 0 0 0 14.0000 106.800 1 29 998 14.0000 107.600 TD 30 1000 15 280
1990272N11121 1990 96 WP MM IRA 1990-10-03 15:00:00 TS 14.1108 105.992 main 0 0 PPP___________ WP231990 13.9998 106.227 27 -1 14.2203 105.595 2 1000 0 0 14.2232 105.916 1 29 999 TD 14 281
1990272N11121 1990 96 WP MM IRA 1990-10-03 18:00:00 TS 14.2333 105.333 1000 tokyo main 0 0 OOO___________ jtwc_wp WP231990 14.1000 105.500 25 -1 14.5000 105.000 2 1000 0 0 0 14.5000 105.000 1 29 1000 11 275
1990272N11121 1990 96 WP MM IRA 1990-10-03 21:00:00 NR 14.1998 104.827 main 0 0 P_____________ WP231990 14.1998 104.827 25 -1 2 0 0 1 11 273
1990272N11121 1990 96 WP MM IRA 1990-10-04 00:00:00 NR 14.3000 104.200 main 0 0 O_____________ jtwc_wp WP231990 14.3000 104.200 25 -1 12 279
1990272N11121 1990 96 WP MM IRA 1990-10-04 03:00:00 NR 14.4000 103.562 main 0 0 P_____________ WP231990 14.4000 103.562 25 -1 12 280
1990272N11121 1990 96 WP MM IRA 1990-10-04 06:00:00 NR 14.5000 103.000 main 0 0 O_____________ jtwc_wp WP231990 14.5000 103.000 25 -1 10 282
1990272N11121 1990 96 WP MM IRA 1990-10-04 09:00:00 NR 14.5998 102.555 main 0 0 P_____________ WP231990 14.5998 102.555 25 -1 8 284
1990272N11121 1990 96 WP MM IRA 1990-10-04 12:00:00 NR 14.7000 102.200 main 0 0 O_____________ jtwc_wp WP231990 14.7000 102.200 25 -1 7 288
1990272N11121 1990 96 WP MM IRA 1990-10-04 15:00:00 NR 14.8074 101.885 main 0 0 P_____________ WP231990 14.8074 101.885 25 -1 6 289
1990272N11121 1990 96 WP MM IRA 1990-10-04 18:00:00 NR 14.9000 101.600 main 0 0 O_____________ jtwc_wp WP231990 14.9000 101.600 25 -1 6 285
1990272N11121 1990 96 WP MM IRA 1990-10-04 21:00:00 NR 14.9575 101.300 main 0 0 P_____________ WP231990 14.9575 101.300 25 -1 6 280
1990272N11121 1990 96 WP MM IRA 1990-10-05 00:00:00 NR 15.0000 101.000 main 0 0 O_____________ jtwc_wp WP231990 15.0000 101.000 25 -1 6 279
1990272N11121 1990 96 WP MM IRA 1990-10-05 03:00:00 NR 15.0500 100.692 main 0 0 P_____________ WP231990 15.0500 100.692 25 -1 6 280
1990272N11121 1990 96 WP MM IRA 1990-10-05 06:00:00 NR 15.1000 100.400 main 0 0 O_____________ jtwc_wp WP231990 15.1000 100.400 25 -1 5 281
1990272N11121 1990 96 WP MM IRA 1990-10-05 09:00:00 NR 15.1500 100.140 main 0 0 P_____________ WP231990 15.1500 100.140 22 -1 5 282
1990272N11121 1990 96 NI BB IRA 1990-10-05 12:00:00 NR 15.2000 99.9000 main 0 O_____________ jtwc_wp WP231990 15.2000 99.9000 20 -1 5 282

デジタル台風データ・検索

IBTrACS Databaseについて

本データベースは、米国NOAAが公開する1842年以降の世界の熱帯低気圧のベストトラックデータアーカイブInternational Best Track Archive for Climate Stewardship (IBTrACS)を、ウェブで閲覧しやすい形式に変換したものです。

最終更新日:2021-10-21